METAR Formatted Surface Weather Observation
Issued by NWS

Home | Current Version | Previous Version | Text Only | Print | Product List | Glossary On
Versions: 1 2 3 4 5 6 7 8 9 10 11 12 13 14 15 16 17 18 19 20 21 22 23 24 25 26 27 28 29 30 31 32 33 34 35 36 37 38 39 40 41 42 43 44 45 46 47 48 49 50
000
SAUS45 KLKN 192358
MTRWMC
METAR KWMC 192356Z AUTO 20014G20KT 10SM CLR 23/M08 A2993 RMK AO2 PK
WND 23026/2322 SLP111 T02331083 10239 20178 56013 TSNO



USA.gov is the U.S. government's official web portal to all federal, state and local government web resources and services.